Time;durP1;ratioP1;P1;durP2;ratioP2;P2;SDS_P1;SDS_P2;PMS_P1;PMS_P2;Temp;Humidity;BMP_temperature;BMP_pressure;BME280_temperature;BME280_humidity;BME280_pressure;Samples;Min_cycle;Max_cycle;Signal;HPM_P1;HPM_P2
2022/03/28 00:00:38;;;;;;;16.38;10.57;;;12.30;53.70;;;;;;5114005;28;20531;-72
2022/03/28 00:03:43;;;;;;;21.25;11.90;;;12.20;53.30;;;;;;5114747;28;20051;-72
2022/03/28 00:06:47;;;;;;;17.02;11.18;;;12.10;54.70;;;;;;5113810;28;20055;-72
2022/03/28 00:09:52;;;;;;;16.13;10.77;;;12.00;53.50;;;;;;5113918;28;20047;-72
2022/03/28 00:12:56;;;;;;;19.73;11.52;;;12.30;53.20;;;;;;5114752;28;20075;-72
2022/03/28 00:16:00;;;;;;;18.55;11.40;;;12.30;53.40;;;;;;5114155;28;20417;-72
2022/03/28 00:19:04;;;;;;;16.23;10.80;;;12.20;53.10;;;;;;5114602;28;20039;-72
2022/03/28 00:22:08;;;;;;;16.85;10.98;;;12.10;53.30;;;;;;5114445;28;20062;-72
2022/03/28 00:25:13;;;;;;;18.75;11.20;;;12.10;53.30;;;;;;5114328;28;20046;-72
2022/03/28 00:28:17;;;;;;;16.88;11.18;;;12.00;53.70;;;;;;5113828;28;20489;-72
2022/03/28 00:31:22;;;;;;;16.67;10.70;;;11.90;53.70;;;;;;5114016;28;20410;-72
2022/03/28 00:34:26;;;;;;;22.02;11.38;;;11.90;53.50;;;;;;5113501;28;20046;-72
2022/03/28 00:37:30;;;;;;;21.42;10.80;;;12.00;53.50;;;;;;5113582;28;20375;-72
2022/03/28 00:40:34;;;;;;;19.00;11.40;;;12.20;53.60;;;;;;5114456;28;20040;-72
2022/03/28 00:43:58;;;;;;;18.70;10.68;;;12.30;53.40;;;;;;5112901;28;20505;-72
2022/03/28 00:47:02;;;;;;;18.35;11.15;;;12.20;53.50;;;;;;5113606;28;20042;-71
2022/03/28 00:50:06;;;;;;;17.00;10.10;;;12.10;53.60;;;;;;5113214;28;20054;-72
2022/03/28 00:53:12;;;;;;;16.23;10.90;;;12.20;53.30;;;;;;5114021;28;20050;-72
2022/03/28 00:56:16;;;;;;;21.90;11.32;;;12.40;52.90;;;;;;5113073;28;20050;-71
2022/03/28 00:59:21;;;;;;;18.15;11.05;;;12.40;53.10;;;;;;5113652;28;20043;-72
2022/03/28 01:02:25;;;;;;;17.95;11.50;;;12.40;53.10;;;;;;5113628;28;20409;-72
2022/03/28 01:05:31;;;;;;;19.98;10.43;;;12.20;53.30;;;;;;5113770;28;20047;-72
2022/03/28 01:08:35;;;;;;;18.27;11.88;;;12.20;53.40;;;;;;5113823;28;20493;-72
2022/03/28 01:11:42;;;;;;;19.17;11.45;;;12.00;54.00;;;;;;5113261;28;20063;-72
2022/03/28 01:14:48;;;;;;;22.20;11.75;;;11.90;53.90;;;;;;5113834;28;20066;-72
2022/03/28 01:18:09;;;;;;;19.13;10.85;;;12.00;53.80;;;;;;5112996;28;20493;-72
2022/03/28 01:21:13;;;;;;;17.05;10.45;;;12.10;53.60;;;;;;5113295;28;20058;-72
2022/03/28 01:24:18;;;;;;;19.30;11.73;;;12.00;54.10;;;;;;5113118;28;20533;-72
2022/03/28 01:27:23;;;;;;;19.27;11.40;;;11.80;54.10;;;;;;5111906;28;20046;-72
2022/03/28 01:30:32;;;;;;;17.92;12.02;;;11.70;54.50;;;;;;5113109;28;20039;-72
2022/03/28 01:33:36;;;;;;;19.63;11.88;;;11.70;54.50;;;;;;5113078;28;20641;-72
2022/03/28 01:36:40;;;;;;;20.02;11.15;;;11.80;54.50;;;;;;5112301;28;20386;-72
2022/03/28 01:39:45;;;;;;;18.83;12.18;;;11.90;54.00;;;;;;5113169;28;20035;-72
2022/03/28 01:42:49;;;;;;;21.88;12.77;;;11.90;54.70;;;;;;5112857;28;20050;-72
2022/03/28 01:45:53;;;;;;;20.08;10.82;;;11.80;54.30;;;;;;5112937;28;20047;-72
2022/03/28 01:48:57;;;;;;;18.50;10.95;;;11.80;54.40;;;;;;5113068;28;20370;-72
2022/03/28 01:52:02;;;;;;;15.77;10.63;;;11.70;54.30;;;;;;5112642;28;20050;-72
2022/03/28 01:55:07;;;;;;;25.27;19.02;;;11.80;54.20;;;;;;5112851;28;20055;-72
2022/03/28 01:58:11;;;;;;;21.95;12.93;;;11.80;54.30;;;;;;5112088;28;20038;-72
2022/03/28 02:01:15;;;;;;;18.75;11.63;;;11.60;54.40;;;;;;5112562;28;20489;-72
2022/03/28 02:04:21;;;;;;;20.17;12.18;;;11.60;54.60;;;;;;5112668;28;20046;-72
2022/03/28 02:07:26;;;;;;;16.58;11.07;;;11.30;55.30;;;;;;5111843;28;20054;-72
2022/03/28 02:10:30;;;;;;;21.13;10.52;;;11.20;55.60;;;;;;5112332;28;20058;-72
2022/03/28 02:13:34;;;;;;;16.63;11.10;;;11.10;55.50;;;;;;5111674;28;20402;-72
2022/03/28 02:16:38;;;;;;;19.77;11.43;;;11.00;56.10;;;;;;5111719;28;20043;-72
2022/03/28 02:19:42;;;;;;;18.45;10.80;;;10.80;56.70;;;;;;5112056;28;20388;-72
2022/03/28 02:22:47;;;;;;;17.52;10.57;;;10.90;55.90;;;;;;5112039;28;20054;-72
2022/03/28 02:25:51;;;;;;;18.98;12.20;;;10.90;55.80;;;;;;5110955;28;20559;-72
2022/03/28 02:28:55;;;;;;;19.70;11.80;;;10.80;56.50;;;;;;5111842;28;20043;-72
2022/03/28 02:31:59;;;;;;;19.00;11.35;;;10.70;56.50;;;;;;5111630;28;20055;-72
2022/03/28 02:35:04;;;;;;;20.15;12.07;;;10.70;56.40;;;;;;5112029;28;20050;-72
2022/03/28 02:38:08;;;;;;;22.30;11.93;;;10.60;57.00;;;;;;5110663;28;20098;-72
2022/03/28 02:41:13;;;;;;;20.92;12.40;;;10.50;57.20;;;;;;5111958;28;20157;-72
2022/03/28 02:44:17;;;;;;;20.10;12.50;;;10.50;57.40;;;;;;5110750;28;20050;-72
2022/03/28 02:47:22;;;;;;;20.73;11.57;;;10.40;57.60;;;;;;5110974;28;20370;-72
2022/03/28 02:50:27;;;;;;;20.77;11.45;;;10.30;57.90;;;;;;5112009;28;20046;-72
2022/03/28 02:53:31;;;;;;;20.33;12.30;;;10.30;58.10;;;;;;5111505;28;20039;-72
2022/03/28 02:56:35;;;;;;;17.77;10.25;;;10.20;58.40;;;;;;5111207;28;20043;-72
2022/03/28 02:59:39;;;;;;;19.98;11.23;;;10.10;58.00;;;;;;5111844;28;20374;-72
2022/03/28 03:02:44;;;;;;;22.58;12.68;;;10.10;58.20;;;;;;5111616;28;20046;-72
2022/03/28 03:05:49;;;;;;;25.35;15.75;;;10.20;58.50;;;;;;5111721;28;20046;-72
2022/03/28 03:08:53;;;;;;;24.08;14.60;;;10.10;58.20;;;;;;5111058;28;20051;-72
2022/03/28 03:11:57;;;;;;;20.10;12.68;;;10.10;58.40;;;;;;5111133;28;20382;-72
2022/03/28 03:15:01;;;;;;;30.92;17.13;;;10.10;58.70;;;;;;5111637;28;20047;-72
2022/03/28 03:18:05;;;;;;;29.33;16.55;;;10.00;58.80;;;;;;5110533;28;20501;-72
2022/03/28 03:21:09;;;;;;;26.75;15.52;;;10.00;58.90;;;;;;5111612;28;20044;-72
2022/03/28 03:24:14;;;;;;;25.25;13.20;;;10.00;58.70;;;;;;5111311;28;20047;-72
2022/03/28 03:27:19;;;;;;;19.98;11.75;;;10.00;59.20;;;;;;5115173;28;20047;-72
2022/03/28 03:30:23;;;;;;;19.73;12.48;;;9.90;59.00;;;;;;5115479;28;20058;-72
2022/03/28 03:33:27;;;;;;;17.25;11.40;;;9.90;59.00;;;;;;5115442;28;20059;-72
2022/03/28 03:36:31;;;;;;;23.15;12.05;;;9.90;58.30;;;;;;5114681;28;20465;-72
2022/03/28 03:39:35;;;;;;;18.00;11.95;;;9.90;58.80;;;;;;5114983;28;20464;-72
2022/03/28 03:42:39;;;;;;;20.65;12.30;;;9.90;58.50;;;;;;5115091;28;20054;-72
2022/03/28 03:45:43;;;;;;;21.73;11.73;;;10.00;58.20;;;;;;5115248;28;20050;-72
2022/03/28 03:48:48;;;;;;;17.35;11.23;;;10.00;59.20;;;;;;5114552;28;20047;-72
2022/03/28 03:51:52;;;;;;;21.10;12.25;;;10.10;58.90;;;;;;5114970;28;20047;-72
2022/03/28 03:54:56;;;;;;;19.63;11.63;;;10.10;59.00;;;;;;5115018;28;20378;-72
2022/03/28 03:58:00;;;;;;;20.83;12.27;;;10.00;58.50;;;;;;5113760;28;20038;-72
2022/03/28 04:01:04;;;;;;;23.65;13.40;;;9.90;58.70;;;;;;5114939;28;20039;-72
2022/03/28 04:04:12;;;;;;;23.80;13.85;;;9.90;58.70;;;;;;5114782;28;20047;-72
2022/03/28 04:07:16;;;;;;;23.52;13.52;;;10.10;58.00;;;;;;5113001;28;20058;-72
2022/03/28 04:10:22;;;;;;;20.65;13.38;;;10.30;58.00;;;;;;5114180;28;20042;-72
2022/03/28 04:13:26;;;;;;;19.20;11.23;;;10.30;57.60;;;;;;5114747;28;20046;-72
2022/03/28 04:16:30;;;;;;;19.02;11.38;;;10.20;57.90;;;;;;5114059;28;20489;-72
2022/03/28 04:19:34;;;;;;;18.73;11.77;;;10.20;58.10;;;;;;5114330;28;20054;-72
2022/03/28 04:22:41;;;;;;;21.73;12.55;;;10.10;59.60;;;;;;5114593;28;20054;-72
2022/03/28 04:25:45;;;;;;;19.92;11.73;;;9.80;59.70;;;;;;5114563;28;20105;-72
2022/03/28 04:28:49;;;;;;;20.27;11.13;;;9.60;59.20;;;;;;5114127;28;20039;-72
2022/03/28 04:31:53;;;;;;;18.02;11.23;;;9.70;59.20;;;;;;5113050;28;20051;-72
2022/03/28 04:34:58;;;;;;;18.65;11.50;;;9.70;58.60;;;;;;5113126;28;20051;-72
2022/03/28 04:38:05;;;;;;;21.98;11.27;;;9.80;58.70;;;;;;5112188;28;20039;-71
2022/03/28 04:41:09;;;;;;;18.25;10.95;;;9.80;58.60;;;;;;5112821;28;20084;-71
2022/03/28 04:44:13;;;;;;;20.63;11.57;;;9.70;58.60;;;;;;5113009;28;20030;-71
2022/03/28 04:47:17;;;;;;;18.67;11.23;;;9.70;59.40;;;;;;5112145;28;20062;-71
2022/03/28 04:50:20;;;;;;;26.33;12.10;;;9.60;59.70;;;;;;5112338;28;20042;-71
2022/03/28 04:53:24;;;;;;;19.80;12.27;;;9.60;58.60;;;;;;5112682;28;20489;-71
2022/03/28 04:56:28;;;;;;;21.73;12.65;;;9.50;60.30;;;;;;5112490;28;20055;-71
2022/03/28 04:59:32;;;;;;;18.67;11.88;;;9.30;60.40;;;;;;5112590;28;20481;-71
2022/03/28 05:02:36;;;;;;;21.02;11.82;;;9.40;59.50;;;;;;5112793;28;20054;-72
2022/03/28 05:05:40;;;;;;;25.20;13.82;;;9.50;59.60;;;;;;5112634;28;20050;-71
2022/03/28 05:08:44;;;;;;;19.10;11.75;;;9.40;61.50;;;;;;5112387;28;20047;-71
2022/03/28 05:11:48;;;;;;;21.08;12.40;;;9.30;59.60;;;;;;5111785;28;20035;-71
2022/03/28 05:14:53;;;;;;;24.42;12.15;;;10.10;57.70;;;;;;5112558;28;20599;-71
2022/03/28 05:17:58;;;;;;;19.45;12.23;;;9.90;60.20;;;;;;5111608;28;20047;-71
2022/03/28 05:21:03;;;;;;;22.60;12.15;;;9.70;59.50;;;;;;5112054;28;20039;-71
2022/03/28 05:24:07;;;;;;;20.65;12.48;;;9.80;59.40;;;;;;5112290;28;20046;-71
2022/03/28 05:27:10;;;;;;;33.90;11.55;;;9.90;58.80;;;;;;5111311;28;20038;-72
2022/03/28 05:30:17;;;;;;;23.40;11.88;;;10.00;59.40;;;;;;5067545;28;1219938;-72
2022/03/28 05:33:22;;;;;;;19.92;11.50;;;10.00;59.20;;;;;;5112519;28;20382;-71
2022/03/28 05:36:28;;;;;;;21.08;11.13;;;10.20;58.00;;;;;;5112339;28;20043;-71
2022/03/28 05:39:36;;;;;;;34.60;12.50;;;10.50;59.40;;;;;;5112684;28;20039;-71
2022/03/28 05:42:40;;;;;;;22.17;11.55;;;10.60;59.50;;;;;;5113014;28;20047;-72
2022/03/28 05:45:44;;;;;;;17.23;11.43;;;10.70;58.30;;;;;;5112725;28;20042;-72
2022/03/28 05:48:48;;;;;;;23.38;12.15;;;11.00;56.80;;;;;;5112218;28;20485;-72
2022/03/28 05:51:52;;;;;;;27.08;12.55;;;11.30;56.60;;;;;;5112363;28;20054;-71
2022/03/28 05:54:56;;;;;;;22.92;13.40;;;11.70;57.30;;;;;;5112738;28;20062;-71
2022/03/28 05:58:00;;;;;;;40.80;14.15;;;12.30;57.90;;;;;;5111899;28;20043;-71
2022/03/28 06:01:04;;;;;;;34.33;13.10;;;13.00;57.10;;;;;;5105038;28;20047;-72
2022/03/28 06:04:08;;;;;;;26.58;13.35;;;14.00;56.10;;;;;;5109254;28;20039;-71
2022/03/28 06:07:12;;;;;;;25.25;12.98;;;15.00;54.70;;;;;;5107462;28;20047;-72
2022/03/28 06:10:16;;;;;;;30.27;12.25;;;15.90;52.30;;;;;;5094394;28;20054;-72
2022/03/28 06:13:21;;;;;;;29.08;12.95;;;16.40;51.00;;;;;;5103240;28;20604;-72
2022/03/28 06:16:26;;;;;;;26.95;13.07;;;17.10;52.40;;;;;;5103914;28;20043;-72
2022/03/28 06:19:30;;;;;;;24.70;13.05;;;18.10;52.10;;;;;;5108115;28;20043;-71
2022/03/28 06:22:34;;;;;;;23.75;12.80;;;18.30;49.90;;;;;;5108863;28;20505;-71
2022/03/28 06:25:38;;;;;;;35.42;12.32;;;19.00;49.80;;;;;;5106352;28;20051;-72
2022/03/28 06:28:42;;;;;;;41.85;13.45;;;20.00;50.10;;;;;;5106278;28;20054;-72
2022/03/28 06:31:46;;;;;;;21.83;11.52;;;21.00;49.20;;;;;;5107627;28;20042;-71
2022/03/28 06:34:52;;;;;;;20.60;11.25;;;21.80;47.30;;;;;;5105639;28;20059;-72
2022/03/28 06:37:56;;;;;;;17.67;11.90;;;22.30;45.40;;;;;;5107166;28;20041;-72
2022/03/28 06:41:00;;;;;;;21.15;12.52;;;22.20;44.00;;;;;;5108805;28;20058;-72
2022/03/28 06:44:08;;;;;;;30.50;11.57;;;21.40;47.90;;;;;;5110872;28;20117;-72
2022/03/28 06:47:11;;;;;;;25.80;11.88;;;22.00;46.90;;;;;;5108135;28;20382;-72
2022/03/28 06:50:16;;;;;;;31.30;12.63;;;22.00;47.00;;;;;;5104216;28;20196;-71
2022/03/28 06:53:19;;;;;;;21.63;11.80;;;22.30;46.70;;;;;;5098830;28;20374;-72
2022/03/28 06:56:23;;;;;;;19.73;11.70;;;21.40;49.20;;;;;;5104763;28;20473;-72
2022/03/28 06:59:28;;;;;;;22.02;11.88;;;22.50;49.00;;;;;;5099518;28;20042;-72
2022/03/28 07:02:32;;;;;;;29.02;12.10;;;23.20;48.50;;;;;;5106605;28;20039;-73
2022/03/28 07:05:36;;;;;;;26.75;11.90;;;23.60;48.40;;;;;;5101280;28;20062;-73
2022/03/28 07:08:40;;;;;;;27.00;11.95;;;24.20;46.90;;;;;;5101184;28;20501;-73
2022/03/28 07:11:45;;;;;;;20.63;10.25;;;24.80;47.40;;;;;;5101003;28;20043;-73
2022/03/28 07:14:50;;;;;;;15.10;10.00;;;25.10;46.40;;;;;;5103217;28;20046;-72
2022/03/28 07:18:02;;;;;;;51.67;11.77;;;24.50;46.90;;;;;;5102372;28;20035;-72
2022/03/28 07:21:06;;;;;;;13.82;9.77;;;24.90;45.40;;;;;;5105760;28;20050;-73
2022/03/28 07:24:10;;;;;;;17.67;10.05;;;25.90;43.50;;;;;;5102780;28;20026;-73
2022/03/28 07:27:16;;;;;;;13.85;9.52;;;26.70;43.20;;;;;;5105917;28;20050;-73
2022/03/28 07:30:21;;;;;;;12.30;9.20;;;27.20;42.70;;;;;;5103436;28;20043;-73
2022/03/28 07:33:25;;;;;;;13.82;9.73;;;27.10;42.20;;;;;;5100413;28;20067;-73
2022/03/28 07:36:29;;;;;;;19.30;9.02;;;26.70;42.20;;;;;;5104742;28;20035;-73
2022/03/28 07:39:34;;;;;;;21.65;9.57;;;27.40;42.80;;;;;;5097848;28;20035;-73
2022/03/28 07:42:40;;;;;;;17.23;9.20;;;27.90;43.20;;;;;;5098009;28;20055;-73
2022/03/28 07:45:45;;;;;;;12.57;9.02;;;27.50;43.00;;;;;;5104234;28;20043;-73
2022/03/28 07:48:49;;;;;;;17.90;9.95;;;24.70;43.70;;;;;;5103915;28;20055;-73
2022/03/28 07:51:53;;;;;;;12.73;9.80;;;24.10;44.30;;;;;;5106407;28;20121;-74
2022/03/28 07:54:58;;;;;;;15.43;9.88;;;24.50;44.80;;;;;;5103175;28;20043;-73
2022/03/28 07:58:03;;;;;;;13.65;8.73;;;24.90;46.00;;;;;;5103310;28;20047;-73
2022/03/28 08:01:07;;;;;;;15.98;9.10;;;26.60;44.20;;;;;;5104131;28;20549;-72
2022/03/28 08:04:11;;;;;;;11.45;7.95;;;27.40;40.50;;;;;;5103474;28;20355;-73
2022/03/28 08:07:15;;;;;;;16.55;9.32;;;28.20;37.50;;;;;;5101267;28;20043;-72
2022/03/28 08:10:21;;;;;;;10.48;7.55;;;27.50;41.00;;;;;;5104367;28;20043;-73
2022/03/28 08:13:25;;;;;;;11.63;7.55;;;27.70;39.90;;;;;;5105759;28;20038;-72
2022/03/28 08:16:30;;;;;;;12.20;7.72;;;26.90;36.70;;;;;;5107093;28;20050;-72
2022/03/28 08:19:34;;;;;;;11.27;7.93;;;28.00;38.30;;;;;;5109181;28;20054;-73
2022/03/28 08:22:44;;;;;;;13.43;7.93;;;26.80;39.70;;;;;;5106219;28;20042;-73
2022/03/28 08:25:49;;;;;;;10.30;7.38;;;29.00;39.60;;;;;;5103459;28;20862;-72
2022/03/28 08:28:53;;;;;;;11.35;7.65;;;27.10;38.20;;;;;;5098515;28;20355;-72
2022/03/28 08:32:00;;;;;;;10.43;7.47;;;28.10;37.30;;;;;;5101195;28;20401;-73
2022/03/28 08:35:06;;;;;;;10.52;7.50;;;25.00;37.70;;;;;;5104692;28;20050;-72
2022/03/28 08:38:10;;;;;;;11.88;7.20;;;27.80;37.90;;;;;;5103128;28;20067;-64
2022/03/28 08:41:17;;;;;;;12.20;7.53;;;29.70;37.00;;;;;;5104097;28;20039;-64
2022/03/28 08:44:20;;;;;;;14.60;7.55;;;29.00;37.70;;;;;;5099900;28;20493;-65
2022/03/28 08:47:27;;;;;;;12.93;6.97;;;28.20;37.20;;;;;;5102161;28;20051;-65
2022/03/28 08:50:32;;;;;;;9.85;6.78;;;29.10;37.40;;;;;;5105322;28;20506;-65
2022/03/28 08:53:37;;;;;;;11.75;7.22;;;26.50;35.50;;;;;;5108451;28;20050;-65
2022/03/28 08:56:42;;;;;;;11.50;7.35;;;26.30;35.10;;;;;;5101329;28;20059;-65
2022/03/28 08:59:45;;;;;;;10.45;6.90;;;28.70;37.30;;;;;;5108256;28;20042;-66
2022/03/28 09:02:54;;;;;;;9.60;7.18;;;27.70;36.50;;;;;;5104567;28;20058;-65
2022/03/28 09:05:58;;;;;;;11.15;7.07;;;29.80;37.00;;;;;;5100582;28;20394;-64
2022/03/28 09:09:16;;;;;;;11.52;7.43;;;30.60;35.90;;;;;;5103694;28;20059;-64
2022/03/28 09:12:21;;;;;;;8.27;6.70;;;28.60;36.30;;;;;;5105692;28;20046;-64
2022/03/28 09:15:44;;;;;;;9.68;6.57;;;31.70;36.40;;;;;;5105326;28;20598;-63
2022/03/28 09:18:57;;;;;;;9.55;7.57;;;32.60;35.80;;;;;;5105295;28;20051;-71
2022/03/28 09:22:10;;;;;;;12.40;7.38;;;27.90;35.00;;;;;;5091455;28;20042;-63
2022/03/28 09:25:14;;;;;;;9.90;6.85;;;29.80;36.90;;;;;;5105271;28;20367;-63
2022/03/28 09:28:40;;;;;;;10.63;6.78;;;31.50;36.50;;;;;;5108165;28;20042;-63
2022/03/28 09:31:46;;;;;;;8.18;6.57;;;34.20;36.60;;;;;;5106140;28;20042;-64
2022/03/28 09:35:08;;;;;;;8.40;6.35;;;33.00;34.40;;;;;;5103391;28;20039;-64
2022/03/28 09:38:15;;;;;;;9.32;6.40;;;33.60;35.50;;;;;;5106873;28;20034;-63
2022/03/28 09:41:23;;;;;;;8.90;5.82;;;32.40;35.90;;;;;;5100580;28;20638;-63
2022/03/28 09:44:39;;;;;;;12.75;6.97;;;35.80;35.80;;;;;;5100153;28;20050;-65
2022/03/28 09:47:59;;;;;;;8.75;6.30;;;38.10;34.80;;;;;;5099237;28;20066;-64
2022/03/28 09:51:05;;;;;;;9.40;6.28;;;40.20;35.00;;;;;;5102803;28;20055;-71
2022/03/28 09:54:23;;;;;;;8.32;5.75;;;41.30;34.40;;;;;;5103270;28;20039;-71
2022/03/28 09:57:32;;;;;;;7.20;5.43;;;41.30;33.20;;;;;;5106984;28;20035;-73
2022/03/28 10:00:48;;;;;;;8.38;5.82;;;38.20;32.00;;;;;;5110337;28;20051;-72
2022/03/28 10:04:05;;;;;;;10.02;6.22;;;35.50;33.60;;;;;;5104875;28;20497;-73
2022/03/28 10:07:09;;;;;;;10.57;6.72;;;37.40;34.00;;;;;;5105837;28;20042;-64
2022/03/28 10:10:16;;;;;;;9.43;6.82;;;35.50;32.70;;;;;;5099961;28;20062;-63
2022/03/28 10:13:22;;;;;;;14.68;7.55;;;32.20;34.30;;;;;;5100432;28;20062;-65
2022/03/28 10:16:26;;;;;;;9.75;6.40;;;30.20;34.90;;;;;;5110118;28;20054;-71
2022/03/28 10:19:38;;;;;;;8.48;6.57;;;34.30;34.80;;;;;;5100771;28;20058;-72
2022/03/28 10:22:46;;;;;;;8.93;6.20;;;38.00;34.50;;;;;;5103556;28;20039;-71
2022/03/28 10:25:52;;;;;;;8.43;6.18;;;38.80;33.70;;;;;;5105657;28;20039;-64
2022/03/28 10:29:09;;;;;;;9.00;6.20;;;39.80;32.90;;;;;;5108809;28;20050;-64
2022/03/28 10:32:13;;;;;;;9.40;6.07;;;40.70;33.10;;;;;;5101927;28;20512;-64
2022/03/28 10:35:18;;;;;;;12.10;5.80;;;41.00;32.60;;;;;;5106330;28;20034;-64
2022/03/28 10:38:23;;;;;;;10.35;6.40;;;40.70;32.70;;;;;;5102885;28;20046;-63
2022/03/28 10:41:27;;;;;;;8.82;6.63;;;40.70;33.30;;;;;;5103484;28;20382;-71
2022/03/28 10:45:19;;;;;;;8.02;6.00;;;42.30;32.70;;;;;;5103192;28;20039;-64
2022/03/28 10:48:38;;;;;;;14.10;6.95;;;43.30;32.50;;;;;;5106802;28;20050;-63
2022/03/28 10:51:48;;;;;;;10.23;6.03;;;41.70;32.00;;;;;;5102525;28;20047;-64
2022/03/28 10:54:52;;;;;;;13.75;6.88;;;41.10;32.30;;;;;;5101432;28;20299;-63
2022/03/28 10:58:15;;;;;;;11.55;7.63;;;35.20;31.30;;;;;;5102725;28;20054;-63
2022/03/28 11:01:23;;;;;;;9.57;7.30;;;34.10;34.10;;;;;;5103643;28;20386;-63
2022/03/28 11:04:27;;;;;;;10.32;7.55;;;35.60;34.00;;;;;;5104069;28;20478;-62
2022/03/28 11:07:31;;;;;;;8.48;7.03;;;32.50;34.90;;;;;;5102567;28;20093;-63
2022/03/28 11:11:14;;;;;;;11.07;8.05;;;35.40;34.40;;;;;;5106800;28;20058;-63
2022/03/28 11:14:18;;;;;;;13.23;7.88;;;38.50;33.30;;;;;;5106111;28;20046;-63
2022/03/28 11:17:37;;;;;;;11.27;7.75;;;38.20;33.00;;;;;;5094534;28;20035;-70
2022/03/28 11:20:52;;;;;;;11.88;7.57;;;39.80;33.80;;;;;;5100922;28;20043;-63
2022/03/28 11:24:11;;;;;;;13.38;8.82;;;40.80;34.00;;;;;;5104581;28;20055;-63
2022/03/28 11:27:17;;;;;;;12.45;8.85;;;35.50;34.80;;;;;;5096576;28;20477;-63
2022/03/28 11:30:21;;;;;;;10.98;8.70;;;35.30;33.80;;;;;;5106665;28;20046;-73
2022/03/28 11:33:33;;;;;;;11.02;9.15;;;36.30;34.30;;;;;;5104599;28;20043;-62
2022/03/28 11:36:39;;;;;;;15.35;8.88;;;33.90;34.40;;;;;;5100945;28;20501;-63
2022/03/28 11:40:00;;;;;;;14.07;9.30;;;34.10;35.40;;;;;;5105637;28;20035;-70
2022/03/28 11:43:05;;;;;;;13.88;9.75;;;35.30;33.80;;;;;;5109620;28;20054;-72
2022/03/28 11:46:20;;;;;;;11.35;8.85;;;36.00;33.80;;;;;;5105995;28;20055;-71
2022/03/28 11:49:24;;;;;;;15.85;8.50;;;34.90;32.40;;;;;;5112471;28;20047;-71
2022/03/28 11:52:29;;;;;;;8.43;7.30;;;35.50;33.20;;;;;;5103745;28;20409;-70
2022/03/28 11:55:34;;;;;;;12.13;8.45;;;33.40;33.40;;;;;;5107477;28;20043;-72
2022/03/28 11:58:38;;;;;;;11.68;8.55;;;32.70;32.40;;;;;;5105783;28;20400;-65
2022/03/28 12:01:43;;;;;;;12.48;8.50;;;33.70;33.20;;;;;;5108242;28;20060;-65
2022/03/28 12:04:47;;;;;;;12.98;9.73;;;30.10;32.60;;;;;;5106601;28;20050;-63
2022/03/28 12:07:53;;;;;;;13.35;9.20;;;27.10;35.80;;;;;;5106225;28;20059;-64
2022/03/28 12:10:59;;;;;;;13.95;9.07;;;28.40;35.40;;;;;;5098262;28;20058;-65
2022/03/28 12:14:03;;;;;;;13.00;9.60;;;31.40;35.50;;;;;;5101120;28;20517;-64
2022/03/28 12:17:08;;;;;;;17.75;10.00;;;27.20;35.40;;;;;;5113605;28;20374;-64
2022/03/28 12:20:13;;;;;;;20.25;10.25;;;27.80;36.40;;;;;;5106589;28;20073;-65
2022/03/28 12:23:21;;;;;;;14.68;10.15;;;25.80;37.20;;;;;;5107627;28;20047;-65
2022/03/28 12:26:44;;;;;;;14.27;9.30;;;25.40;37.80;;;;;;5109393;28;20062;-64
2022/03/28 12:29:51;;;;;;;18.85;10.50;;;25.80;37.70;;;;;;5114671;28;20042;-69
2022/03/28 12:32:56;;;;;;;12.93;9.68;;;25.10;37.10;;;;;;5115541;28;20054;-65
2022/03/28 12:36:06;;;;;;;20.33;9.90;;;25.60;38.50;;;;;;5107024;28;20378;-72
2022/03/28 12:39:11;;;;;;;14.40;8.95;;;26.70;36.40;;;;;;5114654;28;20054;-64
2022/03/28 12:42:28;;;;;;;17.73;10.73;;;28.20;36.60;;;;;;5113813;28;20112;-72
2022/03/28 12:45:32;;;;;;;14.25;10.05;;;28.10;34.90;;;;;;5107946;28;20042;-73
2022/03/28 12:48:44;;;;;;;14.82;10.32;;;26.60;35.10;;;;;;5092753;28;20055;-73
2022/03/28 12:51:49;;;;;;;14.20;9.55;;;26.50;36.70;;;;;;5111729;28;20039;-72
2022/03/28 12:54:57;;;;;;;16.08;10.07;;;27.60;36.20;;;;;;5103630;28;20043;-72
2022/03/28 12:58:01;;;;;;;14.00;9.90;;;25.80;35.00;;;;;;5105473;28;20046;-72
2022/03/28 13:01:09;;;;;;;14.70;9.63;;;27.00;35.80;;;;;;5104081;28;20043;-72
2022/03/28 13:04:22;;;;;;;12.07;9.25;;;26.50;35.70;;;;;;5109149;28;20512;-72
2022/03/28 13:07:30;;;;;;;14.27;9.27;;;26.30;36.20;;;;;;5101764;28;20047;-73
2022/03/28 13:10:41;;;;;;;17.75;10.70;;;26.00;36.30;;;;;;5104650;28;20046;-64
2022/03/28 13:13:47;;;;;;;17.55;9.55;;;27.70;35.80;;;;;;5105763;28;20082;-72
2022/03/28 13:17:10;;;;;;;12.35;9.05;;;27.40;35.60;;;;;;5103609;28;20051;-63
2022/03/28 13:20:20;;;;;;;16.40;10.48;;;25.20;35.70;;;;;;5103990;28;20035;-63
2022/03/28 13:23:26;;;;;;;15.00;9.48;;;25.40;36.20;;;;;;5102066;28;20043;-64
2022/03/28 13:26:46;;;;;;;13.13;9.35;;;25.80;36.40;;;;;;5101823;28;20050;-64
2022/03/28 13:29:50;;;;;;;15.63;9.52;;;26.10;35.80;;;;;;5114090;28;20489;-65
2022/03/28 13:32:55;;;;;;;13.52;9.80;;;26.80;36.90;;;;;;5113605;28;20493;-73
2022/03/28 13:35:59;;;;;;;14.57;10.57;;;27.10;36.20;;;;;;5112170;28;20042;-72
2022/03/28 13:39:04;;;;;;;17.05;9.43;;;29.00;34.90;;;;;;5114205;28;20046;-73
2022/03/28 13:42:09;;;;;;;12.77;9.63;;;28.80;34.70;;;;;;5104816;28;20050;-74
2022/03/28 13:45:12;;;;;;;14.70;9.52;;;26.70;35.30;;;;;;5113730;28;20051;-73
2022/03/28 13:48:21;;;;;;;13.20;9.32;;;26.20;36.50;;;;;;5110842;28;20390;-74
2022/03/28 13:51:27;;;;;;;16.17;9.68;;;25.80;36.30;;;;;;5113673;28;20047;-74
2022/03/28 13:54:34;;;;;;;15.77;9.95;;;26.30;37.40;;;;;;5112828;28;20041;-72
2022/03/28 13:57:38;;;;;;;20.58;9.10;;;26.60;35.60;;;;;;5111685;28;20042;-73
2022/03/28 14:00:43;;;;;;;14.45;9.27;;;27.10;36.50;;;;;;5112490;28;20037;-73
2022/03/28 14:03:46;;;;;;;15.48;9.70;;;27.50;36.50;;;;;;5113476;28;20406;-65
2022/03/28 14:06:50;;;;;;;13.95;9.50;;;26.60;36.30;;;;;;5111482;28;20461;-64
2022/03/28 14:09:55;;;;;;;17.10;9.95;;;24.60;37.30;;;;;;5112694;28;20524;-71
2022/03/28 14:12:59;;;;;;;16.02;10.30;;;24.10;37.20;;;;;;5112667;28;20405;-71
2022/03/28 14:16:03;;;;;;;15.00;10.05;;;23.70;37.10;;;;;;5111451;28;20047;-71
2022/03/28 14:19:08;;;;;;;16.70;10.65;;;24.90;36.70;;;;;;5107421;28;20035;-71
2022/03/28 14:22:12;;;;;;;16.70;10.40;;;25.50;37.60;;;;;;5110500;28;20117;-71
2022/03/28 14:25:18;;;;;;;15.10;10.40;;;26.20;37.20;;;;;;5111869;28;20109;-71
2022/03/28 14:28:23;;;;;;;14.88;10.60;;;24.70;37.30;;;;;;5109038;28;20831;-71
2022/03/28 14:31:27;;;;;;;15.30;9.82;;;25.90;36.70;;;;;;5110180;28;20058;-71
2022/03/28 14:34:31;;;;;;;15.52;10.23;;;26.40;36.50;;;;;;5110406;28;20043;-71
2022/03/28 14:37:35;;;;;;;15.98;10.15;;;25.80;36.00;;;;;;5109792;28;20066;-71
2022/03/28 14:40:41;;;;;;;22.85;10.85;;;26.00;37.00;;;;;;5110733;28;20485;-71
2022/03/28 14:43:45;;;;;;;16.10;10.68;;;25.30;36.60;;;;;;5110866;28;20035;-71
2022/03/28 14:47:01;;;;;;;16.13;10.82;;;25.20;36.80;;;;;;5089307;28;20054;-71
2022/03/28 14:50:07;;;;;;;19.65;11.38;;;26.30;36.60;;;;;;5098213;28;20374;-71
2022/03/28 14:53:12;;;;;;;16.63;10.52;;;27.00;38.00;;;;;;5111380;28;20046;-71
2022/03/28 14:56:16;;;;;;;18.23;9.45;;;27.40;38.50;;;;;;5111122;28;20043;-71
2022/03/28 14:59:20;;;;;;;13.50;9.45;;;27.60;37.70;;;;;;5111435;28;20051;-71
2022/03/28 15:02:24;;;;;;;19.58;10.43;;;27.50;36.90;;;;;;5110225;28;20042;-71
2022/03/28 15:05:28;;;;;;;14.43;9.50;;;26.00;35.80;;;;;;5111732;28;20058;-71
2022/03/28 15:08:33;;;;;;;13.73;9.88;;;25.00;39.00;;;;;;5110966;28;20042;-71
2022/03/28 15:11:39;;;;;;;14.25;10.00;;;25.30;36.70;;;;;;5110931;28;20610;-71
2022/03/28 15:14:43;;;;;;;16.73;10.27;;;25.40;38.50;;;;;;5110996;28;20062;-71
2022/03/28 15:17:47;;;;;;;13.55;9.50;;;25.20;36.60;;;;;;5090214;28;20047;-71
2022/03/28 15:20:50;;;;;;;15.73;10.27;;;25.40;37.80;;;;;;5100765;28;20043;-71
2022/03/28 15:23:55;;;;;;;17.40;10.27;;;25.80;37.40;;;;;;5110173;28;20053;-70
2022/03/28 15:27:00;;;;;;;15.38;10.40;;;25.50;38.30;;;;;;5114815;28;20051;-71
2022/03/28 15:30:05;;;;;;;21.23;10.57;;;25.30;37.60;;;;;;5115599;28;20046;-71
2022/03/28 15:33:09;;;;;;;16.35;10.98;;;25.50;38.70;;;;;;5115496;28;20047;-71
2022/03/28 15:36:12;;;;;;;17.45;10.25;;;24.90;38.70;;;;;;5114405;28;20043;-71
2022/03/28 15:39:17;;;;;;;18.00;11.45;;;23.90;39.80;;;;;;5115314;28;20047;-71
2022/03/28 15:42:22;;;;;;;22.23;11.15;;;23.30;40.00;;;;;;5115034;28;20051;-71
2022/03/28 15:45:27;;;;;;;23.35;11.60;;;23.10;40.00;;;;;;5115214;28;20039;-71
2022/03/28 15:48:33;;;;;;;18.25;10.88;;;23.10;40.90;;;;;;5114729;28;20043;-71
2022/03/28 15:51:37;;;;;;;15.70;11.80;;;23.10;39.10;;;;;;5114927;28;20042;-70